Burna, Kentucky
Current Conditions -  °F | °C
As of 9:15 PM on Tuesday 25 Nov 2014 (Local Time) from K5M9 Reporting Station
Clear Clear  
Wind Chill: 24°   Ceiling: Unl
Heat Index: 29°   Visibility: 10mi
Dew Point: 26°   Wind: 5mph
Humidity: 91%   Direction: 50°NE
Pressure: 30.19"   Gusts: NA
Location:  37.25°N, 88.36°W
Report Text: K5M9 260315Z AUTO 05004KT 10SM CLR M02/M03 A3019 RMK AO2 T10181031
Loading
Personal Weather Stations






























Interactive Weather Map New forecast layout! Learn more

10-Day Weather Forecast

Advertisements
Track Severe Weather on mobile